sensor_id;sensor_type;location;lat;lon;timestamp;pressure;altitude;pressure_sealevel;temperature;humidity
11448;BME280;43755;49.736;8.734;2024-03-29T00:01:22;96015.31;;;8.15;64.18
11448;BME280;43755;49.736;8.734;2024-03-29T00:03:24;96019.03;;;8.25;63.48
11448;BME280;43755;49.736;8.734;2024-03-29T00:05:24;96012.19;;;8.22;61.73
11448;BME280;43755;49.736;8.734;2024-03-29T00:07:25;96010.41;;;8.23;62.27
11448;BME280;43755;49.736;8.734;2024-03-29T00:09:26;96002.50;;;8.23;63.07
11448;BME280;43755;49.736;8.734;2024-03-29T00:11:28;95993.75;;;8.22;62.63
11448;BME280;43755;49.736;8.734;2024-03-29T00:13:28;95990.38;;;8.20;62.67
11448;BME280;43755;49.736;8.734;2024-03-29T00:15:31;95981.22;;;8.26;62.24
11448;BME280;43755;49.736;8.734;2024-03-29T00:17:31;95980.03;;;8.44;61.26
11448;BME280;43755;49.736;8.734;2024-03-29T00:19:32;95969.91;;;8.38;61.64
11448;BME280;43755;49.736;8.734;2024-03-29T00:21:33;95961.16;;;8.38;61.54
11448;BME280;43755;49.736;8.734;2024-03-29T00:23:33;95962.94;;;8.37;62.36
11448;BME280;43755;49.736;8.734;2024-03-29T00:25:34;95946.78;;;8.29;61.68
11448;BME280;43755;49.736;8.734;2024-03-29T00:27:36;95968.88;;;8.41;60.72
11448;BME280;43755;49.736;8.734;2024-03-29T00:29:36;95961.81;;;8.41;61.74
11448;BME280;43755;49.736;8.734;2024-03-29T00:31:37;95971.41;;;8.42;61.44
11448;BME280;43755;49.736;8.734;2024-03-29T00:33:38;95988.69;;;8.46;61.32
11448;BME280;43755;49.736;8.734;2024-03-29T00:35:38;95987.75;;;8.47;60.46
11448;BME280;43755;49.736;8.734;2024-03-29T00:37:39;95984.91;;;8.50;61.62
11448;BME280;43755;49.736;8.734;2024-03-29T00:39:39;95973.63;;;8.48;61.13
11448;BME280;43755;49.736;8.734;2024-03-29T00:41:40;95967.41;;;8.49;61.78
11448;BME280;43755;49.736;8.734;2024-03-29T00:43:42;95975.22;;;8.51;61.95
11448;BME280;43755;49.736;8.734;2024-03-29T00:45:43;95976.50;;;8.58;60.36
11448;BME280;43755;49.736;8.734;2024-03-29T00:47:44;95970.38;;;8.57;61.22
11448;BME280;43755;49.736;8.734;2024-03-29T00:49:44;95964.38;;;8.55;60.09
11448;BME280;43755;49.736;8.734;2024-03-29T00:51:45;95955.94;;;8.63;59.84
11448;BME280;43755;49.736;8.734;2024-03-29T00:53:46;95962.69;;;8.67;59.73
11448;BME280;43755;49.736;8.734;2024-03-29T00:55:46;95962.69;;;8.67;58.98
11448;BME280;43755;49.736;8.734;2024-03-29T00:57:47;95959.78;;;8.72;59.57
11448;BME280;43755;49.736;8.734;2024-03-29T00:59:49;95966.94;;;8.70;58.87
11448;BME280;43755;49.736;8.734;2024-03-29T01:01:50;95959.78;;;8.72;59.64
11448;BME280;43755;49.736;8.734;2024-03-29T01:03:50;95946.88;;;8.67;60.38
11448;BME280;43755;49.736;8.734;2024-03-29T01:05:51;95941.59;;;8.67;59.37
11448;BME280;43755;49.736;8.734;2024-03-29T01:07:52;95936.16;;;8.70;60.14
11448;BME280;43755;49.736;8.734;2024-03-29T01:09:52;95944.69;;;8.74;60.40
11448;BME280;43755;49.736;8.734;2024-03-29T01:11:53;95933.50;;;8.70;59.38
11448;BME280;43755;49.736;8.734;2024-03-29T01:13:54;95930.44;;;8.63;60.73
11448;BME280;43755;49.736;8.734;2024-03-29T01:15:56;95915.78;;;8.59;59.17
11448;BME280;43755;49.736;8.734;2024-03-29T01:17:56;95926.72;;;8.66;59.84
11448;BME280;43755;49.736;8.734;2024-03-29T01:19:57;95929.50;;;8.65;60.03
11448;BME280;43755;49.736;8.734;2024-03-29T01:21:57;95938.13;;;8.67;60.97
11448;BME280;43755;49.736;8.734;2024-03-29T01:23:58;95932.00;;;8.66;61.01
11448;BME280;43755;49.736;8.734;2024-03-29T01:25:59;95931.19;;;8.66;61.18
11448;BME280;43755;49.736;8.734;2024-03-29T01:27:59;95923.38;;;8.64;60.86
11448;BME280;43755;49.736;8.734;2024-03-29T01:30:00;95907.66;;;8.62;61.66
11448;BME280;43755;49.736;8.734;2024-03-29T01:32:02;95894.72;;;8.59;60.91
11448;BME280;43755;49.736;8.734;2024-03-29T01:34:03;95892.59;;;8.65;60.02
11448;BME280;43755;49.736;8.734;2024-03-29T01:36:04;95882.16;;;8.63;60.77
11448;BME280;43755;49.736;8.734;2024-03-29T01:38:04;95885.13;;;8.58;59.70
11448;BME280;43755;49.736;8.734;2024-03-29T01:40:06;95887.75;;;8.71;60.22
11448;BME280;43755;49.736;8.734;2024-03-29T01:42:07;95890.16;;;8.74;59.43
11448;BME280;43755;49.736;8.734;2024-03-29T01:44:07;95890.06;;;8.76;58.95
11448;BME280;43755;49.736;8.734;2024-03-29T01:46:09;95890.06;;;8.76;59.50
11448;BME280;43755;49.736;8.734;2024-03-29T01:48:12;95895.97;;;8.79;59.86
11448;BME280;43755;49.736;8.734;2024-03-29T01:50:14;95905.66;;;8.79;59.48
11448;BME280;43755;49.736;8.734;2024-03-29T01:52:16;95897.75;;;8.79;59.17
11448;BME280;43755;49.736;8.734;2024-03-29T01:54:20;95899.03;;;8.86;58.75
11448;BME280;43755;49.736;8.734;2024-03-29T01:56:22;95889.41;;;8.85;58.52
11448;BME280;43755;49.736;8.734;2024-03-29T01:58:24;95882.47;;;8.84;59.12
11448;BME280;43755;49.736;8.734;2024-03-29T02:00:26;95889.00;;;8.78;59.92
11448;BME280;43755;49.736;8.734;2024-03-29T02:02:28;95887.22;;;8.79;59.06
11448;BME280;43755;49.736;8.734;2024-03-29T02:04:31;95883.63;;;8.80;59.44
11448;BME280;43755;49.736;8.734;2024-03-29T02:06:33;95883.84;;;8.77;58.77
11448;BME280;43755;49.736;8.734;2024-03-29T02:08:34;95896.28;;;8.87;57.19
11448;BME280;43755;49.736;8.734;2024-03-29T02:10:36;95899.66;;;8.89;57.80
11448;BME280;43755;49.736;8.734;2024-03-29T02:12:36;95880.38;;;8.89;58.08
11448;BME280;43755;49.736;8.734;2024-03-29T02:14:38;95905.75;;;8.90;57.29
11448;BME280;43755;49.736;8.734;2024-03-29T02:16:40;95892.81;;;8.87;58.19
11448;BME280;43755;49.736;8.734;2024-03-29T02:18:42;95907.59;;;8.89;58.46
11448;BME280;43755;49.736;8.734;2024-03-29T02:20:44;95903.25;;;8.88;57.89
11448;BME280;43755;49.736;8.734;2024-03-29T02:22:50;95905.88;;;8.88;58.10
11448;BME280;43755;49.736;8.734;2024-03-29T02:24:55;95911.78;;;8.92;58.86
11448;BME280;43755;49.736;8.734;2024-03-29T02:26:57;95908.63;;;8.87;58.99
11448;BME280;43755;49.736;8.734;2024-03-29T02:28:58;95910.31;;;8.88;58.28
11448;BME280;43755;49.736;8.734;2024-03-29T02:31:00;95909.47;;;8.87;58.50
11448;BME280;43755;49.736;8.734;2024-03-29T02:33:01;95902.09;;;8.92;57.73
11448;BME280;43755;49.736;8.734;2024-03-29T02:35:03;95902.69;;;8.96;57.80
11448;BME280;43755;49.736;8.734;2024-03-29T02:37:06;95898.78;;;9.01;57.72
11448;BME280;43755;49.736;8.734;2024-03-29T02:39:08;95901.44;;;9.01;57.45
11448;BME280;43755;49.736;8.734;2024-03-29T02:41:10;95885.84;;;8.98;57.51
11448;BME280;43755;49.736;8.734;2024-03-29T02:43:11;95888.38;;;9.00;57.47
11448;BME280;43755;49.736;8.734;2024-03-29T02:45:14;95883.09;;;9.00;57.38
11448;BME280;43755;49.736;8.734;2024-03-29T02:47:15;95872.97;;;9.07;58.53
11448;BME280;43755;49.736;8.734;2024-03-29T02:49:16;95878.97;;;9.09;58.31
11448;BME280;43755;49.736;8.734;2024-03-29T02:51:17;95890.69;;;9.04;59.02
11448;BME280;43755;49.736;8.734;2024-03-29T02:53:19;95893.50;;;9.01;57.85
11448;BME280;43755;49.736;8.734;2024-03-29T02:55:19;95907.03;;;9.10;57.31
11448;BME280;43755;49.736;8.734;2024-03-29T02:57:22;95906.69;;;9.14;57.44
11448;BME280;43755;49.736;8.734;2024-03-29T02:59:23;95921.91;;;9.11;57.15
11448;BME280;43755;49.736;8.734;2024-03-29T03:01:24;95917.38;;;9.13;57.29
11448;BME280;43755;49.736;8.734;2024-03-29T03:03:26;95910.28;;;9.13;58.47
11448;BME280;43755;49.736;8.734;2024-03-29T03:05:29;95913.47;;;9.06;57.31
11448;BME280;43755;49.736;8.734;2024-03-29T03:07:29;95927.38;;;9.08;58.25
11448;BME280;43755;49.736;8.734;2024-03-29T03:09:49;95909.66;;;9.10;58.24
11448;BME280;43755;49.736;8.734;2024-03-29T03:12:08;95904.69;;;9.18;58.77
11448;BME280;43755;49.736;8.734;2024-03-29T03:14:10;95905.94;;;9.25;58.17
11448;BME280;43755;49.736;8.734;2024-03-29T03:16:12;95906.25;;;9.33;58.03
11448;BME280;43755;49.736;8.734;2024-03-29T03:18:13;95903.28;;;9.37;59.04
11448;BME280;43755;49.736;8.734;2024-03-29T03:20:14;95902.44;;;9.37;58.43
11448;BME280;43755;49.736;8.734;2024-03-29T03:22:16;95906.66;;;9.39;59.03
11448;BME280;43755;49.736;8.734;2024-03-29T03:24:18;95920.47;;;9.43;57.48
11448;BME280;43755;49.736;8.734;2024-03-29T03:26:18;95907.06;;;9.46;57.60
11448;BME280;43755;49.736;8.734;2024-03-29T03:28:20;95917.28;;;9.51;57.20
11448;BME280;43755;49.736;8.734;2024-03-29T03:30:22;95912.97;;;9.50;56.52
11448;BME280;43755;49.736;8.734;2024-03-29T03:32:24;95910.13;;;9.53;56.18
11448;BME280;43755;49.736;8.734;2024-03-29T03:34:24;95904.66;;;9.67;56.01
11448;BME280;43755;49.736;8.734;2024-03-29T03:36:26;95909.75;;;9.70;55.59
11448;BME280;43755;49.736;8.734;2024-03-29T03:38:26;95924.63;;;9.71;55.89
11448;BME280;43755;49.736;8.734;2024-03-29T03:40:28;95935.28;;;9.69;56.02
11448;BME280;43755;49.736;8.734;2024-03-29T03:42:29;95930.19;;;9.79;56.52
11448;BME280;43755;49.736;8.734;2024-03-29T03:44:31;95924.28;;;9.75;59.30
11448;BME280;43755;49.736;8.734;2024-03-29T03:46:33;95929.47;;;9.77;58.79
11448;BME280;43755;49.736;8.734;2024-03-29T03:48:34;95915.69;;;9.84;60.36
11448;BME280;43755;49.736;8.734;2024-03-29T03:50:35;95923.56;;;9.97;61.98
11448;BME280;43755;49.736;8.734;2024-03-29T03:52:36;95923.47;;;9.99;61.33
11448;BME280;43755;49.736;8.734;2024-03-29T03:54:37;95925.19;;;9.87;59.12
11448;BME280;43755;49.736;8.734;2024-03-29T03:56:38;95918.03;;;9.89;58.24
11448;BME280;43755;49.736;8.734;2024-03-29T03:58:39;95916.00;;;9.93;58.95
11448;BME280;43755;49.736;8.734;2024-03-29T04:00:41;95916.44;;;9.86;56.23
11448;BME280;43755;49.736;8.734;2024-03-29T04:02:47;95912.75;;;9.89;57.21
11448;BME280;43755;49.736;8.734;2024-03-29T04:04:47;95917.22;;;10.00;55.19
11448;BME280;43755;49.736;8.734;2024-03-29T04:06:49;95929.41;;;10.13;53.91
11448;BME280;43755;49.736;8.734;2024-03-29T04:08:50;95920.09;;;10.20;53.43
11448;BME280;43755;49.736;8.734;2024-03-29T04:10:51;95915.47;;;10.24;54.04
11448;BME280;43755;49.736;8.734;2024-03-29T04:12:52;95919.06;;;10.23;52.84
11448;BME280;43755;49.736;8.734;2024-03-29T04:14:53;95919.06;;;10.23;53.53
11448;BME280;43755;49.736;8.734;2024-03-29T04:16:54;95912.69;;;10.25;54.12
11448;BME280;43755;49.736;8.734;2024-03-29T04:18:56;95913.97;;;10.20;54.63
11448;BME280;43755;49.736;8.734;2024-03-29T04:20:57;95906.91;;;10.20;56.58
11448;BME280;43755;49.736;8.734;2024-03-29T04:22:58;95914.53;;;10.12;60.13
11448;BME280;43755;49.736;8.734;2024-03-29T04:24:59;95918.06;;;10.00;59.45
11448;BME280;43755;49.736;8.734;2024-03-29T04:27:00;95910.59;;;9.94;67.28
11448;BME280;43755;49.736;8.734;2024-03-29T04:29:04;95911.84;;;9.77;70.82
11448;BME280;43755;49.736;8.734;2024-03-29T04:31:04;95919.16;;;9.61;70.95
11448;BME280;43755;49.736;8.734;2024-03-29T04:33:06;95906.97;;;9.48;74.22
11448;BME280;43755;49.736;8.734;2024-03-29T04:35:08;95926.59;;;9.43;70.06
11448;BME280;43755;49.736;8.734;2024-03-29T04:37:10;95918.47;;;9.47;67.80
11448;BME280;43755;49.736;8.734;2024-03-29T04:39:11;95928.63;;;9.40;75.78
11448;BME280;43755;49.736;8.734;2024-03-29T04:41:13;95925.56;;;9.33;75.67
11448;BME280;43755;49.736;8.734;2024-03-29T04:43:14;95915.31;;;9.41;76.09
11448;BME280;43755;49.736;8.734;2024-03-29T04:45:15;95911.31;;;9.36;76.58
11448;BME280;43755;49.736;8.734;2024-03-29T04:47:16;95932.22;;;9.26;77.70
11448;BME280;43755;49.736;8.734;2024-03-29T04:49:19;95925.91;;;9.29;80.46
11448;BME280;43755;49.736;8.734;2024-03-29T04:51:26;95926.00;;;9.27;82.66
11448;BME280;43755;49.736;8.734;2024-03-29T04:53:26;95934.34;;;9.21;82.08
11448;BME280;43755;49.736;8.734;2024-03-29T04:55:28;95932.78;;;9.19;82.39
11448;BME280;43755;49.736;8.734;2024-03-29T04:57:29;95928.53;;;9.29;83.48
11448;BME280;43755;49.736;8.734;2024-03-29T04:59:31;95930.22;;;9.30;82.21
11448;BME280;43755;49.736;8.734;2024-03-29T05:01:32;95931.38;;;9.26;88.13
11448;BME280;43755;49.736;8.734;2024-03-29T05:03:35;95931.16;;;9.29;87.67
11448;BME280;43755;49.736;8.734;2024-03-29T05:05:36;95931.50;;;9.24;91.07
11448;BME280;43755;49.736;8.734;2024-03-29T05:07:39;95925.38;;;9.24;92.42
11448;BME280;43755;49.736;8.734;2024-03-29T05:09:41;95926.00;;;9.27;95.32
11448;BME280;43755;49.736;8.734;2024-03-29T05:11:42;95931.06;;;9.30;95.08
11448;BME280;43755;49.736;8.734;2024-03-29T05:13:43;95932.44;;;9.23;93.31
11448;BME280;43755;49.736;8.734;2024-03-29T05:15:44;95931.69;;;9.09;96.50
11448;BME280;43755;49.736;8.734;2024-03-29T05:17:47;95943.84;;;9.11;95.32
11448;BME280;43755;49.736;8.734;2024-03-29T05:19:49;95944.38;;;9.16;94.12
11448;BME280;43755;49.736;8.734;2024-03-29T05:21:50;95941.41;;;9.08;96.42
11448;BME280;43755;49.736;8.734;2024-03-29T05:23:53;95952.50;;;9.00;96.01
11448;BME280;43755;49.736;8.734;2024-03-29T05:25:54;95949.03;;;9.00;95.36
11448;BME280;43755;49.736;8.734;2024-03-29T05:27:56;95942.56;;;9.04;96.73
11448;BME280;43755;49.736;8.734;2024-03-29T05:29:56;95946.25;;;9.01;97.17
11448;BME280;43755;49.736;8.734;2024-03-29T05:31:58;95950.38;;;8.93;97.68
11448;BME280;43755;49.736;8.734;2024-03-29T05:33:59;95945.53;;;8.87;98.42
11448;BME280;43755;49.736;8.734;2024-03-29T05:36:02;95945.84;;;8.82;100.00
11448;BME280;43755;49.736;8.734;2024-03-29T05:38:05;95940.44;;;8.84;100.00
11448;BME280;43755;49.736;8.734;2024-03-29T05:40:09;95934.34;;;8.96;95.09
11448;BME280;43755;49.736;8.734;2024-03-29T05:42:10;95938.78;;;9.08;94.92
11448;BME280;43755;49.736;8.734;2024-03-29T05:44:12;95934.66;;;9.04;97.73
11448;BME280;43755;49.736;8.734;2024-03-29T05:46:15;95938.34;;;9.01;99.79
11448;BME280;43755;49.736;8.734;2024-03-29T05:48:15;95943.53;;;9.03;99.35
11448;BME280;43755;49.736;8.734;2024-03-29T05:50:19;95939.31;;;9.00;100.00
11448;BME280;43755;49.736;8.734;2024-03-29T05:52:19;95935.94;;;8.98;100.00
11448;BME280;43755;49.736;8.734;2024-03-29T05:54:23;95941.84;;;8.89;100.00
11448;BME280;43755;49.736;8.734;2024-03-29T05:56:26;95937.81;;;8.84;100.00
11448;BME280;43755;49.736;8.734;2024-03-29T05:58:27;95940.59;;;8.82;100.00
11448;BME280;43755;49.736;8.734;2024-03-29T06:00:28;95940.06;;;8.77;100.00
11448;BME280;43755;49.736;8.734;2024-03-29T06:02:30;95939.31;;;8.75;100.00
11448;BME280;43755;49.736;8.734;2024-03-29T06:04:31;95944.16;;;8.69;100.00
11448;BME280;43755;49.736;8.734;2024-03-29T06:06:32;95937.59;;;8.61;100.00
11448;BME280;43755;49.736;8.734;2024-03-29T06:08:34;95951.09;;;8.57;100.00
11448;BME280;43755;49.736;8.734;2024-03-29T06:10:35;95953.09;;;8.53;100.00
11448;BME280;43755;49.736;8.734;2024-03-29T06:12:37;95954.25;;;8.62;100.00
11448;BME280;43755;49.736;8.734;2024-03-29T06:14:39;95954.34;;;8.60;100.00
11448;BME280;43755;49.736;8.734;2024-03-29T06:16:57;95963.22;;;8.59;100.00
11448;BME280;43755;49.736;8.734;2024-03-29T06:19:16;95973.78;;;8.72;100.00
11448;BME280;43755;49.736;8.734;2024-03-29T06:21:18;95977.16;;;8.74;100.00
11448;BME280;43755;49.736;8.734;2024-03-29T06:23:19;95984.25;;;8.86;100.00
11448;BME280;43755;49.736;8.734;2024-03-29T06:25:21;95987.09;;;8.96;100.00
11448;BME280;43755;49.736;8.734;2024-03-29T06:27:22;95982.38;;;9.01;100.00
11448;BME280;43755;49.736;8.734;2024-03-29T06:29:26;95984.78;;;9.04;100.00
11448;BME280;43755;49.736;8.734;2024-03-29T06:31:27;95987.41;;;9.04;100.00
11448;BME280;43755;49.736;8.734;2024-03-29T06:33:29;95987.63;;;9.14;100.00
11448;BME280;43755;49.736;8.734;2024-03-29T06:35:30;95990.56;;;9.09;100.00
11448;BME280;43755;49.736;8.734;2024-03-29T06:37:32;95988.59;;;9.00;100.00
11448;BME280;43755;49.736;8.734;2024-03-29T06:39:32;95997.41;;;8.86;100.00
11448;BME280;43755;49.736;8.734;2024-03-29T06:41:34;95992.88;;;8.76;100.00
11448;BME280;43755;49.736;8.734;2024-03-29T06:43:36;95994.56;;;8.77;100.00
11448;BME280;43755;49.736;8.734;2024-03-29T06:45:40;96000.38;;;8.82;100.00
11448;BME280;43755;49.736;8.734;2024-03-29T06:47:43;95996.97;;;8.80;100.00
11448;BME280;43755;49.736;8.734;2024-03-29T06:49:44;95986.34;;;8.81;100.00
11448;BME280;43755;49.736;8.734;2024-03-29T06:51:45;95988.03;;;8.82;100.00
11448;BME280;43755;49.736;8.734;2024-03-29T06:53:47;95983.91;;;8.91;100.00
11448;BME280;43755;49.736;8.734;2024-03-29T06:55:49;95960.72;;;8.96;100.00
11448;BME280;43755;49.736;8.734;2024-03-29T06:57:50;95967.47;;;9.00;100.00
11448;BME280;43755;49.736;8.734;2024-03-29T06:59:51;95974.66;;;8.98;100.00
11448;BME280;43755;49.736;8.734;2024-03-29T07:01:55;95964.09;;;8.98;100.00
11448;BME280;43755;49.736;8.734;2024-03-29T07:03:56;95954.41;;;8.98;100.00
11448;BME280;43755;49.736;8.734;2024-03-29T07:05:58;95960.41;;;9.00;100.00
11448;BME280;43755;49.736;8.734;2024-03-29T07:07:58;95958.06;;;8.96;100.00
11448;BME280;43755;49.736;8.734;2024-03-29T07:10:01;95961.38;;;8.99;100.00
11448;BME280;43755;49.736;8.734;2024-03-29T07:12:03;95956.81;;;9.01;100.00
11448;BME280;43755;49.736;8.734;2024-03-29T07:14:04;95951.53;;;9.01;100.00
11448;BME280;43755;49.736;8.734;2024-03-29T07:16:06;95951.44;;;9.03;100.00
11448;BME280;43755;49.736;8.734;2024-03-29T07:18:09;95959.56;;;9.13;100.00
11448;BME280;43755;49.736;8.734;2024-03-29T07:20:10;95956.81;;;9.27;100.00
11448;BME280;43755;49.736;8.734;2024-03-29T07:22:12;95952.47;;;9.38;100.00
11448;BME280;43755;49.736;8.734;2024-03-29T07:24:13;95940.53;;;9.45;91.56
11448;BME280;43755;49.736;8.734;2024-03-29T07:26:14;95934.28;;;9.59;87.00
11448;BME280;43755;49.736;8.734;2024-03-29T07:28:15;95934.75;;;9.77;85.56
11448;BME280;43755;49.736;8.734;2024-03-29T07:30:17;95933.13;;;9.87;85.19
11448;BME280;43755;49.736;8.734;2024-03-29T07:32:19;95917.03;;;9.90;81.46
11448;BME280;43755;49.736;8.734;2024-03-29T07:34:22;95923.56;;;9.97;86.01
11448;BME280;43755;49.736;8.734;2024-03-29T07:36:23;95928.31;;;10.05;86.21
11448;BME280;43755;49.736;8.734;2024-03-29T07:38:27;95925.56;;;10.06;82.15
11448;BME280;43755;49.736;8.734;2024-03-29T07:40:28;95921.38;;;10.15;86.00
11448;BME280;43755;49.736;8.734;2024-03-29T07:42:30;95930.69;;;10.20;84.85
11448;BME280;43755;49.736;8.734;2024-03-29T07:44:31;95926.03;;;10.24;81.97
11448;BME280;43755;49.736;8.734;2024-03-29T07:46:33;95922.09;;;10.30;79.42
11448;BME280;43755;49.736;8.734;2024-03-29T07:48:34;95928.13;;;10.43;76.00
11448;BME280;43755;49.736;8.734;2024-03-29T07:50:37;95928.75;;;10.46;70.54
11448;BME280;43755;49.736;8.734;2024-03-29T07:52:39;95940.56;;;10.53;73.64
11448;BME280;43755;49.736;8.734;2024-03-29T07:54:40;95926.13;;;10.57;79.64
11448;BME280;43755;49.736;8.734;2024-03-29T07:56:42;95938.81;;;10.76;69.32
11448;BME280;43755;49.736;8.734;2024-03-29T07:58:44;95937.41;;;10.83;63.14
11448;BME280;43755;49.736;8.734;2024-03-29T08:00:45;95945.94;;;10.87;69.39
11448;BME280;43755;49.736;8.734;2024-03-29T08:02:46;95947.50;;;10.89;66.47
11448;BME280;43755;49.736;8.734;2024-03-29T08:04:51;95952.06;;;10.87;66.43
11448;BME280;43755;49.736;8.734;2024-03-29T08:06:54;95947.72;;;10.86;63.34
11448;BME280;43755;49.736;8.734;2024-03-29T08:08:57;95956.50;;;10.87;67.63
11448;BME280;43755;49.736;8.734;2024-03-29T08:10:59;95959.25;;;10.85;70.91
11448;BME280;43755;49.736;8.734;2024-03-29T08:13:01;95943.03;;;10.90;67.98
11448;BME280;43755;49.736;8.734;2024-03-29T08:15:03;95945.81;;;10.88;68.88
11448;BME280;43755;49.736;8.734;2024-03-29T08:17:05;95942.69;;;10.94;66.23
11448;BME280;43755;49.736;8.734;2024-03-29T08:19:09;95955.69;;;10.97;72.54
11448;BME280;43755;49.736;8.734;2024-03-29T08:21:11;95948.00;;;10.94;68.68
11448;BME280;43755;49.736;8.734;2024-03-29T08:23:14;95949.69;;;10.95;72.51
11448;BME280;43755;49.736;8.734;2024-03-29T08:25:17;95953.97;;;10.85;70.40
11448;BME280;43755;49.736;8.734;2024-03-29T08:27:19;95947.22;;;10.81;73.46
11448;BME280;43755;49.736;8.734;2024-03-29T08:29:21;95942.88;;;10.69;72.91
11448;BME280;43755;49.736;8.734;2024-03-29T08:31:23;95952.84;;;10.65;74.89
11448;BME280;43755;49.736;8.734;2024-03-29T08:33:24;95947.56;;;10.65;72.01
11448;BME280;43755;49.736;8.734;2024-03-29T08:35:25;95955.97;;;10.59;74.79
11448;BME280;43755;49.736;8.734;2024-03-29T08:37:27;95952.56;;;10.57;71.43
11448;BME280;43755;49.736;8.734;2024-03-29T08:39:29;95957.13;;;10.55;76.37
11448;BME280;43755;49.736;8.734;2024-03-29T08:41:30;95958.22;;;10.53;77.28
11448;BME280;43755;49.736;8.734;2024-03-29T08:43:32;95972.94;;;10.44;76.73
11448;BME280;43755;49.736;8.734;2024-03-29T08:45:34;95977.84;;;10.38;83.01
11448;BME280;43755;49.736;8.734;2024-03-29T08:47:34;95987.69;;;10.36;85.29
11448;BME280;43755;49.736;8.734;2024-03-29T08:49:36;95993.09;;;10.34;90.45
11448;BME280;43755;49.736;8.734;2024-03-29T08:51:37;95997.22;;;10.25;88.63
11448;BME280;43755;49.736;8.734;2024-03-29T08:53:39;95986.91;;;10.22;91.56
11448;BME280;43755;49.736;8.734;2024-03-29T08:55:41;96001.69;;;10.25;95.24
11448;BME280;43755;49.736;8.734;2024-03-29T08:57:43;96005.06;;;10.14;95.38
11448;BME280;43755;49.736;8.734;2024-03-29T08:59:45;96008.50;;;10.04;97.40
11448;BME280;43755;49.736;8.734;2024-03-29T09:01:46;96023.28;;;10.06;100.00
11448;BME280;43755;49.736;8.734;2024-03-29T09:03:49;96033.84;;;10.06;100.00
11448;BME280;43755;49.736;8.734;2024-03-29T09:05:51;96031.66;;;10.00;100.00
11448;BME280;43755;49.736;8.734;2024-03-29T09:07:52;96037.25;;;9.96;100.00
11448;BME280;43755;49.736;8.734;2024-03-29T09:09:53;96049.75;;;9.81;100.00
11448;BME280;43755;49.736;8.734;2024-03-29T09:11:56;96042.78;;;9.80;100.00
11448;BME280;43755;49.736;8.734;2024-03-29T09:13:57;96049.66;;;9.82;100.00
11448;BME280;43755;49.736;8.734;2024-03-29T09:15:59;96039.81;;;9.84;100.00
11448;BME280;43755;49.736;8.734;2024-03-29T09:18:01;96062.00;;;9.82;100.00
11448;BME280;43755;49.736;8.734;2024-03-29T09:20:10;96060.66;;;9.76;100.00
11448;BME280;43755;49.736;8.734;2024-03-29T09:22:12;96053.34;;;9.80;100.00
11448;BME280;43755;49.736;8.734;2024-03-29T09:24:13;96052.06;;;9.85;100.00
11448;BME280;43755;49.736;8.734;2024-03-29T09:26:17;96057.25;;;9.87;100.00
11448;BME280;43755;49.736;8.734;2024-03-29T09:28:21;96065.03;;;10.01;100.00
11448;BME280;43755;49.736;8.734;2024-03-29T09:30:23;96061.16;;;9.94;100.00
11448;BME280;43755;49.736;8.734;2024-03-29T09:32:24;96065.38;;;9.84;100.00
11448;BME280;43755;49.736;8.734;2024-03-29T09:34:25;96073.94;;;9.88;100.00
11448;BME280;43755;49.736;8.734;2024-03-29T09:36:26;96082.56;;;9.90;100.00
11448;BME280;43755;49.736;8.734;2024-03-29T09:38:28;96079.31;;;9.86;100.00
11448;BME280;43755;49.736;8.734;2024-03-29T09:40:30;96081.75;;;9.89;100.00
11448;BME280;43755;49.736;8.734;2024-03-29T09:42:32;96079.22;;;9.88;100.00
11448;BME280;43755;49.736;8.734;2024-03-29T09:44:35;96095.69;;;9.91;100.00
11448;BME280;43755;49.736;8.734;2024-03-29T09:46:38;96093.69;;;9.82;100.00
11448;BME280;43755;49.736;8.734;2024-03-29T09:48:41;96092.00;;;9.81;100.00
11448;BME280;43755;49.736;8.734;2024-03-29T09:50:42;96100.78;;;9.81;100.00
11448;BME280;43755;49.736;8.734;2024-03-29T09:52:44;96108.69;;;9.69;100.00
11448;BME280;43755;49.736;8.734;2024-03-29T09:54:46;96116.28;;;9.61;100.00
11448;BME280;43755;49.736;8.734;2024-03-29T09:56:47;96119.56;;;9.52;100.00
11448;BME280;43755;49.736;8.734;2024-03-29T09:58:50;96123.91;;;9.53;100.00
11448;BME280;43755;49.736;8.734;2024-03-29T10:00:55;96120.50;;;9.51;100.00
11448;BME280;43755;49.736;8.734;2024-03-29T10:02:56;96119.97;;;9.45;100.00
11448;BME280;43755;49.736;8.734;2024-03-29T10:05:00;96119.03;;;9.47;100.00
11448;BME280;43755;49.736;8.734;2024-03-29T10:07:07;96118.72;;;9.51;100.00
11448;BME280;43755;49.736;8.734;2024-03-29T10:09:09;96125.59;;;9.54;100.00
11448;BME280;43755;49.736;8.734;2024-03-29T10:11:11;96120.19;;;9.55;100.00
11448;BME280;43755;49.736;8.734;2024-03-29T10:13:13;96130.34;;;9.61;100.00
11448;BME280;43755;49.736;8.734;2024-03-29T10:15:13;96124.19;;;9.61;100.00
11448;BME280;43755;49.736;8.734;2024-03-29T10:17:17;96131.72;;;9.67;100.00
11448;BME280;43755;49.736;8.734;2024-03-29T10:19:20;96131.94;;;9.76;100.00
11448;BME280;43755;49.736;8.734;2024-03-29T10:21:24;96123.25;;;9.74;100.00
11448;BME280;43755;49.736;8.734;2024-03-29T10:23:26;96119.78;;;9.86;100.00
11448;BME280;43755;49.736;8.734;2024-03-29T10:25:31;96133.06;;;9.85;100.00
11448;BME280;43755;49.736;8.734;2024-03-29T10:27:33;96138.03;;;9.90;100.00
11448;BME280;43755;49.736;8.734;2024-03-29T10:29:34;96131.94;;;9.89;100.00
11448;BME280;43755;49.736;8.734;2024-03-29T10:31:36;96140.47;;;9.93;100.00
11448;BME280;43755;49.736;8.734;2024-03-29T10:33:42;96129.38;;;10.00;100.00
11448;BME280;43755;49.736;8.734;2024-03-29T10:35:44;96123.78;;;10.17;100.00
11448;BME280;43755;49.736;8.734;2024-03-29T10:37:45;96119.97;;;10.21;100.00
11448;BME280;43755;49.736;8.734;2024-03-29T10:39:47;96113.13;;;10.19;100.00
11448;BME280;43755;49.736;8.734;2024-03-29T10:41:49;96113.19;;;10.30;100.00
11448;BME280;43755;49.736;8.734;2024-03-29T10:43:53;96113.06;;;10.32;100.00
11448;BME280;43755;49.736;8.734;2024-03-29T10:45:56;96095.75;;;10.27;100.00
11448;BME280;43755;49.736;8.734;2024-03-29T10:48:00;96094.84;;;10.52;100.00
11448;BME280;43755;49.736;8.734;2024-03-29T10:50:03;96082.50;;;10.88;100.00